Bookmark and Share
Track history (hours):
 

MSC Flavia

Last reported at 2014-Apr-08 14:33 UTC. Time now 2014-Apr-25 06:12 UTC.
Position N 35°41' E 025°58'.
Warning: this ship's position is 16 days out of date.

Length 366 m; draft 15.5 m.

Type: Ship (hazmat cat A). MMSI: 373004000.

NotesDate/timePositionNaut miles runAvg speedWind from/ knotsBaromVisibWave heightAir tempDewpointWater temp
2014-Apr-08 14:33N 35°41' E 025°58'1716.4
2014-Apr-08 13:32N 35°50' E 025°41'1616.2
2014-Apr-08 12:33N 35°59' E 025°24'1616.0
2014-Apr-08 11:33N 36°07' E 025°07'1616.1
2014-Apr-08 10:33N 36°16' E 024°51'1615.7
2014-Apr-08 09:33N 36°25' E 024°34'1515.4
2014-Apr-08 08:33N 36°33' E 024°18'1514.7
2014-Apr-08 07:32N 36°43' E 024°04'1515.6
2014-Apr-08 06:33N 36°57' E 023°58'3917.3
2014-Apr-08 04:17N 37°35' E 023°44'1115.5
2014-Apr-08 03:33N 37°46' E 023°39'1211.8
2014-Apr-08 02:34N 37°57' E 023°36'1 0.6
2014-Apr-08 01:27N 37°57' E 023°36'0 0.0
2014-Apr-08 00:33N 37°57' E 023°36'0 0.0
2014-Apr-07 23:33N 37°57' E 023°36'0 0.0
2014-Apr-07 22:33N 37°57' E 023°36'0 0.0
2014-Apr-07 21:32N 37°57' E 023°36'0 0.0
2014-Apr-07 20:33N 37°57' E 023°36'0 0.0
2014-Apr-07 19:33N 37°57' E 023°36'0 0.0
2014-Apr-07 17:15N 37°57' E 023°36'0 0.0
2014-Apr-07 16:33N 37°57' E 023°36'0 0.0
2014-Apr-07 15:33N 37°57' E 023°36'0 0.0
2014-Apr-07 14:33N 37°57' E 023°36'0 0.0
2014-Apr-07 13:26N 37°57' E 023°36'0 0.0
2014-Apr-07 12:33N 37°57' E 023°36'0 0.0
2014-Apr-07 11:29N 37°57' E 023°36'0 0.0
2014-Apr-07 10:33N 37°57' E 023°36'0 0.0
2014-Apr-07 09:21N 37°57' E 023°36'0 0.0
2014-Apr-07 08:32N 37°57' E 023°36'0 0.0
2014-Apr-07 07:33N 37°57' E 023°36'0 0.0
2014-Apr-07 06:29N 37°57' E 023°36'0 0.0
2014-Apr-07 05:24N 37°57' E 023°36'3 4.1
2014-Apr-07 04:34N 37°54' E 023°35'0 0.4
2014-Apr-07 03:33N 37°54' E 023°36'5 5.3
2014-Apr-07 02:33N 37°50' E 023°40'10 9.5
2014-Apr-07 01:33N 37°41' E 023°45'10 9.3
2014-Apr-07 00:29N 37°36' E 023°56'9 9.8
2014-Apr-06 23:33N 37°36' E 024°07'1311.2
2014-Apr-06 22:22N 37°45' E 024°18'1011.0
2014-Apr-06 21:30N 37°51' E 024°28'1111.4
2014-Apr-06 20:33N 37°59' E 024°37'  
2014-Apr-04 12:33N 40°44' E 029°24'1212.3
2014-Apr-04 11:34N 40°44' E 029°08'1717.2
2014-Apr-04 10:33N 40°48' E 028°46'  
2014-Apr-01 08:08N 40°28' E 026°54'4311.8
2014-Apr-01 04:30N 40°01' E 026°11'1111.2
2014-Apr-01 03:33N 39°57' E 025°58'8 7.2
2014-Apr-01 02:29N 39°51' E 025°51'8 9.1
2014-Apr-01 01:33N 39°44' E 025°46'1915.7
2014-Apr-01 00:20N 39°26' E 025°35'1619.8
2014-Mar-31 23:32N 39°12' E 025°25'8819.8
2014-Mar-31 19:04N 37°53' E 024°34'1018.7
2014-Mar-31 18:33N 37°47' E 024°25'1818.3
2014-Mar-31 17:32N 37°35' E 024°08'1918.8
2014-Mar-31 16:33N 37°38' E 023°45'1817.8
2014-Mar-31 15:33N 37°54' E 023°37'3 2.8
2014-Mar-31 14:22N 37°57' E 023°35'0 0.0
2014-Mar-31 13:31N 37°57' E 023°35'0 0.0
2014-Mar-31 12:28N 37°57' E 023°35'0 0.0
2014-Mar-31 11:31N 37°57' E 023°35'0 0.0
2014-Mar-31 10:28N 37°57' E 023°35'0 0.0
2014-Mar-31 09:25N 37°57' E 023°35'0 0.0
2014-Mar-31 08:28N 37°57' E 023°35'0 0.0
2014-Mar-31 07:31N 37°57' E 023°35'0 0.0
2014-Mar-31 06:28N 37°57' E 023°35'0 0.0
2014-Mar-31 05:28N 37°57' E 023°35'0 0.0
2014-Mar-31 04:28N 37°57' E 023°35'0 0.0
2014-Mar-31 03:28N 37°57' E 023°35'0 0.0
2014-Mar-31 02:28N 37°57' E 023°35'0 0.0
2014-Mar-31 01:28N 37°57' E 023°35'0 0.0
2014-Mar-31 00:31N 37°57' E 023°35'0 0.0
2014-Mar-30 23:28N 37°57' E 023°35'0 0.0
2014-Mar-30 22:31N 37°57' E 023°35'0 0.0
2014-Mar-30 21:31N 37°57' E 023°35'0 0.0
2014-Mar-30 20:28N 37°57' E 023°35'0 0.0
2014-Mar-30 19:28N 37°57' E 023°35'0 0.0
2014-Mar-30 18:28N 37°57' E 023°35'0 0.0
2014-Mar-30 17:28N 37°57' E 023°35'0 0.0
2014-Mar-30 16:31N 37°57' E 023°35'0 0.0
2014-Mar-30 15:31N 37°57' E 023°35'0 0.0
2014-Mar-30 14:31N 37°57' E 023°35'0 0.0
2014-Mar-30 13:28N 37°57' E 023°35'0 0.0
2014-Mar-30 12:28N 37°57' E 023°35'0 0.0
2014-Mar-30 11:28N 37°57' E 023°35'0 0.0
2014-Mar-30 10:28N 37°57' E 023°35'0 0.0
2014-Mar-30 09:31N 37°57' E 023°35'0 0.0
2014-Mar-30 08:28N 37°57' E 023°35'0 0.0
2014-Mar-30 07:28N 37°57' E 023°35'0 0.0
2014-Mar-30 06:28N 37°57' E 023°35'0 0.0
2014-Mar-30 05:28N 37°57' E 023°35'0 0.3
2014-Mar-30 04:34N 37°57' E 023°35'3 2.9
2014-Mar-30 03:33N 37°54' E 023°36'7 6.6
2014-Mar-30 02:33N 37°49' E 023°41'1111.3
2014-Mar-30 01:33N 37°38' E 023°46'4314.2
2014-Mar-29 22:31N 36°57' E 023°60'1414.5
2014-Mar-29 21:33N 36°43' E 024°04'1414.1
2014-Mar-29 20:32N 36°33' E 024°17'1414.4
2014-Mar-29 19:32N 36°26' E 024°32'1414.3
2014-Mar-29 18:33N 36°18' E 024°47'1413.9
2014-Mar-29 17:33N 36°11' E 025°02'1413.9
2014-Mar-29 16:33N 36°03' E 025°16'1414.1
2014-Mar-29 15:34N 35°55' E 025°30'1414.1
2014-Mar-29 14:34N 35°48' E 025°45'  

Dump ship's entire track history

sailing weather and tide predictions

MSC Flavia — 3FBD7 — position and weather